Remanso, Brazil
Current Conditions -  °F | °C
As of 5:00 PM on Tuesday 25 Nov 2014 (Local Time) from SBCZ Reporting Station
Thunderstorm Thunderstorm  
Wind Chill: 86°   Ceiling: Unl
Heat Index: 99°   Visibility: 4mi
Dew Point: 79°   Wind: 6mph
Humidity: 79%   Direction: 30°NNE
Pressure: NA   Gusts: NA
Location:  8.48°S, 73.05°W
Report Text: SBCZ 252200Z 03005KT 7000 -TSRA SCT030 FEW040CB SCT100 30/26 Q1006
Loading
Personal Weather Stations






























Interactive Weather Map New forecast layout! Learn more

10-Day Weather Forecast

Advertisements
Track Severe Weather on mobile